Time;durP1;ratioP1;P1;durP2;ratioP2;P2;SDS_P1;SDS_P2;PMS_P1;PMS_P2;Temp;Humidity;BMP_temperature;BMP_pressure;BME280_temperature;BME280_humidity;BME280_pressure;Samples;Min_cycle;Max_cycle;Signal;HPM_P1;HPM_P2
2023/12/02 00:02:11;;;;;;;41.05;20.10;;;0.90;99.90;;;;;;5054191;28;20056;-81
2023/12/02 00:04:37;;;;;;;39.80;19.20;;;-0.20;99.90;;;;;;5065131;28;20576;-81
2023/12/02 00:07:03;;;;;;;41.33;19.10;;;-0.20;99.90;;;;;;5051137;28;20049;-80
2023/12/02 00:09:29;;;;;;;39.72;18.65;;;-0.20;99.90;;;;;;5053917;28;20051;-82
2023/12/02 00:11:54;;;;;;;43.25;20.42;;;-0.20;99.90;;;;;;5071166;28;20068;-82
2023/12/02 00:14:20;;;;;;;39.33;19.45;;;-0.20;99.90;;;;;;5062662;28;20127;-82
2023/12/02 00:16:45;;;;;;;38.78;19.73;;;-0.20;99.90;;;;;;5069636;28;20127;-81
2023/12/02 00:19:12;;;;;;;41.35;20.88;;;-0.20;99.90;;;;;;5059577;28;20052;-82
2023/12/02 00:21:37;;;;;;;40.22;18.92;;;-0.20;99.90;;;;;;5062418;28;20119;-79
2023/12/02 00:24:03;;;;;;;39.85;18.77;;;-0.20;99.90;;;;;;5050836;28;20563;-80
2023/12/02 00:26:29;;;;;;;38.58;17.88;;;-0.20;99.90;;;;;;5051594;28;20124;-81
2023/12/02 00:28:55;;;;;;;39.25;20.15;;;-0.10;99.90;;;;;;5064658;28;20057;-81
2023/12/02 00:31:21;;;;;;;44.15;20.05;;;-0.20;99.90;;;;;;5049968;28;20128;-80
2023/12/02 00:33:47;;;;;;;38.85;19.90;;;-0.20;99.90;;;;;;5062895;28;20456;-79
2023/12/02 00:36:12;;;;;;;38.42;19.67;;;0.60;99.90;;;;;;5054815;28;20128;-82
2023/12/02 00:38:38;;;;;;;39.33;20.25;;;-0.20;99.90;;;;;;5058407;28;20139;-82
2023/12/02 00:41:04;;;;;;;36.15;18.52;;;-0.10;99.90;;;;;;5059522;28;20052;-82
2023/12/02 00:43:30;;;;;;;37.10;17.38;;;-0.10;99.90;;;;;;5049744;28;20041;-82
2023/12/02 00:45:55;;;;;;;40.72;19.92;;;1.00;99.90;;;;;;5061792;28;20048;-79
2023/12/02 00:48:21;;;;;;;43.15;20.33;;;-0.10;99.90;;;;;;5070067;28;20132;-80
2023/12/02 00:50:46;;;;;;;37.83;18.48;;;0.90;99.90;;;;;;5062475;28;20044;-81
2023/12/02 00:53:12;;;;;;;42.05;21.17;;;-0.20;99.90;;;;;;5059211;28;20400;-82
2023/12/02 00:55:38;;;;;;;39.40;19.15;;;-0.20;99.90;;;;;;5065890;28;20040;-82
2023/12/02 00:58:03;;;;;;;40.20;18.65;;;0.40;99.90;;;;;;5055513;28;20049;-81
2023/12/02 01:00:29;;;;;;;39.08;18.80;;;-0.20;99.90;;;;;;5050867;28;20134;-81
2023/12/02 01:02:55;;;;;;;41.13;18.90;;;-0.20;99.90;;;;;;5059220;28;20093;-82
2023/12/02 01:05:20;;;;;;;36.33;18.15;;;-0.10;99.90;;;;;;5056935;28;20072;-82
2023/12/02 01:07:46;;;;;;;41.00;20.17;;;-0.10;99.90;;;;;;5064779;28;20428;-81
2023/12/02 01:10:12;;;;;;;33.90;17.38;;;0.60;99.90;;;;;;5058159;28;20044;-81
2023/12/02 01:12:39;;;;;;;38.28;18.88;;;-0.10;99.90;;;;;;5052371;28;20055;-81
2023/12/02 01:15:05;;;;;;;37.30;19.58;;;-0.10;99.90;;;;;;5068838;28;20044;-82
2023/12/02 01:17:31;;;;;;;40.28;20.88;;;-0.10;99.90;;;;;;5066701;28;20059;-80
2023/12/02 01:19:56;;;;;;;39.78;19.40;;;-0.10;99.90;;;;;;5056644;28;20049;-81
2023/12/02 01:22:22;;;;;;;40.63;20.15;;;0.60;99.90;;;;;;5053902;28;20041;-81
2023/12/02 01:24:47;;;;;;;42.67;20.85;;;-0.10;99.90;;;;;;5051018;28;20537;-81
2023/12/02 01:27:13;;;;;;;44.42;21.02;;;0.70;99.90;;;;;;5067911;28;20052;-80
2023/12/02 01:29:38;;;;;;;38.78;19.00;;;-0.10;99.90;;;;;;5051758;28;20086;-82
2023/12/02 01:32:05;;;;;;;38.70;19.67;;;-0.10;99.90;;;;;;5053945;28;20044;-82
2023/12/02 01:34:31;;;;;;;35.30;18.80;;;-0.10;99.90;;;;;;5061676;28;20128;-82
2023/12/02 01:36:56;;;;;;;34.55;16.27;;;-0.10;99.90;;;;;;5063962;28;20124;-80
2023/12/02 01:39:22;;;;;;;41.88;20.90;;;1.00;99.90;;;;;;5038667;28;21468;-82
2023/12/02 01:41:47;;;;;;;45.55;20.85;;;-0.10;99.90;;;;;;5069574;28;20044;-81
2023/12/02 01:44:13;;;;;;;38.47;18.92;;;0.00;99.90;;;;;;5065460;28;20045;-80
2023/12/02 01:46:39;;;;;;;39.15;19.08;;;0.00;99.90;;;;;;5052473;28;20040;-82
2023/12/02 01:49:07;;;;;;;40.30;19.98;;;0.00;99.90;;;;;;5061532;28;20107;-81
2023/12/02 01:51:34;;;;;;;42.65;20.33;;;0.00;99.90;;;;;;5068632;28;20045;-80
2023/12/02 01:53:59;;;;;;;37.88;19.27;;;0.00;99.90;;;;;;5065875;28;20049;-82
2023/12/02 01:56:26;;;;;;;39.25;20.17;;;0.00;99.90;;;;;;5055056;28;20060;-82
2023/12/02 01:58:51;;;;;;;36.92;18.38;;;0.00;99.90;;;;;;5052054;28;20045;-81
2023/12/02 02:01:18;;;;;;;44.58;20.60;;;0.00;99.90;;;;;;5050905;28;20496;-81
2023/12/02 02:03:43;;;;;;;41.45;21.38;;;0.00;99.90;;;;;;5061255;28;20048;-81
2023/12/02 02:06:10;;;;;;;40.95;20.67;;;0.20;99.90;;;;;;5062336;28;20045;-81
2023/12/02 02:08:36;;;;;;;34.15;18.10;;;0.00;99.90;;;;;;5063615;28;20127;-81
2023/12/02 02:11:02;;;;;;;41.20;20.40;;;0.00;99.90;;;;;;5063734;28;20076;-82
2023/12/02 02:13:27;;;;;;;39.53;19.20;;;0.00;99.90;;;;;;5073405;28;20048;-82
2023/12/02 02:15:54;;;;;;;41.53;18.52;;;1.20;99.90;;;;;;5072580;28;20461;-80
2023/12/02 02:18:20;;;;;;;41.08;19.38;;;0.00;99.90;;;;;;5063730;28;20384;-81
2023/12/02 02:20:52;;;;;;;42.53;21.77;;;1.00;99.90;;;;;;5062693;28;20041;-80
2023/12/02 02:23:20;;;;;;;41.38;19.98;;;0.00;99.90;;;;;;5053411;28;20057;-82
2023/12/02 02:25:48;;;;;;;38.70;20.10;;;0.00;99.90;;;;;;5061129;28;20076;-81
2023/12/02 02:28:13;;;;;;;44.70;20.88;;;0.50;99.90;;;;;;5056610;28;20519;-81
2023/12/02 02:30:39;;;;;;;44.38;21.65;;;1.20;99.90;;;;;;5054186;28;20053;-81
2023/12/02 02:33:05;;;;;;;42.80;20.45;;;0.00;99.90;;;;;;5057167;28;20090;-81
2023/12/02 02:35:33;;;;;;;41.80;21.27;;;1.20;99.90;;;;;;5072796;28;20048;-82
2023/12/02 02:37:59;;;;;;;42.63;19.90;;;0.10;99.90;;;;;;5042689;28;20048;-82
2023/12/02 02:40:25;;;;;;;46.90;22.30;;;0.10;99.90;;;;;;5055614;28;20063;-81
2023/12/02 02:42:50;;;;;;;40.30;19.00;;;0.10;99.90;;;;;;5056323;28;20400;-81
2023/12/02 02:45:16;;;;;;;36.80;17.20;;;0.00;99.90;;;;;;5055943;28;20114;-82
2023/12/02 02:47:42;;;;;;;38.00;19.02;;;1.00;99.90;;;;;;5070976;28;20487;-82
2023/12/02 02:50:07;;;;;;;40.97;19.33;;;0.20;99.90;;;;;;5069252;28;20460;-81
2023/12/02 02:52:33;;;;;;;45.08;21.45;;;0.00;99.90;;;;;;5075164;28;20041;-80
2023/12/02 02:54:59;;;;;;;38.47;18.52;;;0.00;99.90;;;;;;5074640;28;20114;-80
2023/12/02 02:57:25;;;;;;;40.13;20.00;;;0.00;99.90;;;;;;5060156;28;20365;-81
2023/12/02 02:59:51;;;;;;;42.58;20.60;;;0.00;99.90;;;;;;5038077;28;20064;-80
2023/12/02 03:02:17;;;;;;;40.20;20.83;;;0.00;99.90;;;;;;5054055;28;20036;-81
2023/12/02 03:04:43;;;;;;;40.33;19.83;;;0.10;99.90;;;;;;5069452;28;20057;-82
2023/12/02 03:07:08;;;;;;;43.20;21.27;;;0.10;99.90;;;;;;5057929;28;20123;-81
2023/12/02 03:09:34;;;;;;;41.63;20.92;;;0.00;99.90;;;;;;5052206;28;20041;-81
2023/12/02 03:12:00;;;;;;;42.35;21.27;;;0.00;99.90;;;;;;5066304;28;20407;-81
2023/12/02 03:14:25;;;;;;;37.40;19.33;;;0.00;99.90;;;;;;5052202;28;20069;-81
2023/12/02 03:16:51;;;;;;;36.13;18.38;;;0.00;99.90;;;;;;5060048;28;20044;-81
2023/12/02 03:19:19;;;;;;;39.35;20.70;;;0.10;99.90;;;;;;5061925;28;20119;-81
2023/12/02 03:21:45;;;;;;;43.70;21.30;;;-0.10;99.90;;;;;;5071776;28;20136;-81
2023/12/02 03:24:10;;;;;;;42.33;20.58;;;0.00;99.90;;;;;;5068583;28;20144;-81
2023/12/02 03:26:36;;;;;;;38.63;20.02;;;0.00;99.90;;;;;;5052301;28;20430;-82
2023/12/02 03:29:03;;;;;;;44.90;22.45;;;0.10;99.90;;;;;;5038974;28;20040;-81
2023/12/02 03:31:29;;;;;;;41.15;19.23;;;0.00;99.90;;;;;;5052914;28;20056;-82
2023/12/02 03:33:54;;;;;;;34.67;18.08;;;0.30;99.90;;;;;;5052074;28;20446;-81
2023/12/02 03:36:20;;;;;;;44.13;20.13;;;0.00;99.90;;;;;;5068012;28;20048;-81
2023/12/02 03:38:46;;;;;;;38.80;20.70;;;0.00;99.90;;;;;;5070944;28;20126;-82
2023/12/02 03:41:12;;;;;;;35.20;17.85;;;0.20;99.90;;;;;;5053317;28;20388;-81
2023/12/02 03:43:37;;;;;;;41.30;20.15;;;0.90;99.90;;;;;;5057293;28;20040;-82
2023/12/02 03:46:03;;;;;;;44.63;21.17;;;1.20;99.90;;;;;;5065796;28;20122;-82
2023/12/02 03:48:29;;;;;;;41.20;21.45;;;0.00;99.90;;;;;;5051693;28;20053;-80
2023/12/02 03:50:54;;;;;;;37.78;19.13;;;0.00;99.90;;;;;;5051760;28;20097;-81
2023/12/02 03:53:20;;;;;;;43.78;20.70;;;0.00;99.90;;;;;;5060722;28;20531;-82
2023/12/02 03:55:46;;;;;;;37.97;20.23;;;0.60;99.90;;;;;;5055585;28;20052;-81
2023/12/02 03:58:11;;;;;;;48.25;21.10;;;0.00;99.90;;;;;;5063011;28;20135;-81
2023/12/02 04:00:37;;;;;;;40.97;20.80;;;0.00;99.90;;;;;;5059902;28;20051;-81
2023/12/02 04:03:03;;;;;;;35.20;17.48;;;0.00;99.90;;;;;;5070561;28;20048;-82
2023/12/02 04:05:29;;;;;;;37.15;18.98;;;0.00;99.90;;;;;;5067843;28;20083;-81
2023/12/02 04:07:54;;;;;;;39.35;19.40;;;0.00;99.90;;;;;;5069199;28;20060;-81
2023/12/02 04:10:20;;;;;;;38.53;19.60;;;0.00;99.90;;;;;;5070970;28;20048;-81
2023/12/02 04:12:46;;;;;;;40.42;19.90;;;0.00;99.90;;;;;;5072430;28;20062;-81
2023/12/02 04:15:12;;;;;;;33.58;17.52;;;0.00;99.90;;;;;;5060923;28;20045;-81
2023/12/02 04:17:37;;;;;;;44.20;20.67;;;0.00;99.90;;;;;;5067260;28;20055;-81
2023/12/02 04:20:08;;;;;;;38.40;18.70;;;0.20;99.90;;;;;;5062585;28;20123;-79
2023/12/02 04:22:35;;;;;;;40.63;20.38;;;0.00;99.90;;;;;;5064104;28;20468;-81
2023/12/02 04:25:00;;;;;;;41.00;19.58;;;0.00;99.90;;;;;;5058344;28;20052;-81
2023/12/02 04:27:26;;;;;;;42.55;21.27;;;0.60;99.90;;;;;;5050338;28;20037;-81
2023/12/02 04:29:51;;;;;;;39.92;20.02;;;0.00;99.90;;;;;;5060356;28;20087;-81
2023/12/02 04:32:17;;;;;;;40.97;19.33;;;0.00;99.90;;;;;;5052033;28;20392;-81
2023/12/02 04:34:43;;;;;;;39.30;20.73;;;0.00;99.90;;;;;;5061804;28;20123;-81
2023/12/02 04:37:09;;;;;;;40.42;20.25;;;0.00;99.90;;;;;;5051896;28;20049;-81
2023/12/02 04:39:34;;;;;;;38.92;19.75;;;-0.10;99.90;;;;;;5055265;28;20052;-81
2023/12/02 04:42:00;;;;;;;39.13;19.85;;;-0.10;99.90;;;;;;5070186;28;20053;-81
2023/12/02 04:44:25;;;;;;;36.28;19.42;;;-0.10;99.90;;;;;;5060332;28;20048;-81
2023/12/02 04:46:51;;;;;;;40.10;19.35;;;0.00;99.90;;;;;;5068943;28;20080;-80
2023/12/02 04:49:17;;;;;;;41.38;21.05;;;0.60;99.90;;;;;;5068412;28;20033;-81
2023/12/02 04:51:42;;;;;;;40.00;19.88;;;-0.20;99.90;;;;;;5064990;28;20082;-81
2023/12/02 04:54:09;;;;;;;30.77;16.88;;;-0.20;99.90;;;;;;5061683;28;20055;-81
2023/12/02 04:56:35;;;;;;;38.45;19.88;;;-0.20;99.90;;;;;;5038149;28;20041;-81
2023/12/02 04:59:01;;;;;;;35.50;17.80;;;-0.20;99.90;;;;;;5051646;28;20090;-80
2023/12/02 05:01:27;;;;;;;36.42;18.88;;;-0.10;99.90;;;;;;5069781;28;20045;-80
2023/12/02 05:03:52;;;;;;;34.15;18.25;;;-0.10;99.90;;;;;;5058294;28;20424;-81
2023/12/02 05:06:18;;;;;;;28.67;15.77;;;-0.20;99.90;;;;;;5068712;28;20056;-81
2023/12/02 05:08:46;;;;;;;36.55;19.33;;;-0.20;99.90;;;;;;5055689;28;20047;-82
2023/12/02 05:11:20;;;;;;;38.28;19.30;;;-0.20;99.90;;;;;;5071110;28;20052;-81
2023/12/02 05:13:46;;;;;;;36.40;17.58;;;-0.10;99.90;;;;;;5051323;28;20048;-81
2023/12/02 05:16:13;;;;;;;35.67;17.55;;;-0.10;99.90;;;;;;5053577;28;20094;-81
2023/12/02 05:18:42;;;;;;;37.45;19.00;;;0.90;99.90;;;;;;5064326;28;20049;-81
2023/12/02 05:21:11;;;;;;;38.15;18.10;;;-0.20;99.90;;;;;;5054816;28;20178;-81
2023/12/02 05:23:39;;;;;;;36.80;18.40;;;-0.20;99.90;;;;;;5039254;28;20060;-81
2023/12/02 05:26:06;;;;;;;35.00;17.98;;;-0.20;99.90;;;;;;5064626;28;20033;-81
2023/12/02 05:28:32;;;;;;;35.75;18.33;;;-0.20;99.90;;;;;;5054126;28;20052;-81
2023/12/02 05:30:58;;;;;;;33.08;17.10;;;-0.20;99.90;;;;;;5064510;28;20049;-81
2023/12/02 05:33:24;;;;;;;38.78;19.23;;;-0.20;99.90;;;;;;5050218;28;20049;-81
2023/12/02 05:35:50;;;;;;;39.30;18.73;;;-0.20;99.90;;;;;;5065642;28;20494;-81
2023/12/02 05:38:16;;;;;;;36.55;18.65;;;0.70;99.90;;;;;;5067894;28;20045;-81
2023/12/02 05:40:42;;;;;;;38.40;18.05;;;-0.10;99.90;;;;;;5066897;28;20147;-81
2023/12/02 05:43:08;;;;;;;34.38;17.13;;;-0.20;99.90;;;;;;5067291;28;20123;-80
2023/12/02 05:45:33;;;;;;;34.33;16.55;;;-0.30;99.90;;;;;;5072031;28;20048;-80
2023/12/02 05:47:59;;;;;;;34.85;18.83;;;-0.30;99.90;;;;;;5048192;28;20044;-81
2023/12/02 05:50:26;;;;;;;37.72;19.15;;;-0.30;99.90;;;;;;5065239;28;20086;-81
2023/12/02 05:52:51;;;;;;;34.42;16.83;;;-0.40;99.90;;;;;;5069096;28;20048;-80
2023/12/02 05:55:17;;;;;;;39.53;17.73;;;-0.40;99.90;;;;;;5061194;28;20399;-81
2023/12/02 05:57:46;;;;;;;33.40;16.40;;;-0.40;99.90;;;;;;5066812;28;20486;-81
2023/12/02 06:00:12;;;;;;;35.20;17.42;;;0.20;99.90;;;;;;5060092;28;20135;-81
2023/12/02 06:02:38;;;;;;;39.45;18.20;;;-0.40;99.90;;;;;;5055747;28;20051;-82
2023/12/02 06:05:06;;;;;;;35.05;18.95;;;-0.40;99.90;;;;;;5055175;28;20056;-81
2023/12/02 06:07:32;;;;;;;37.75;18.38;;;-0.40;99.90;;;;;;5064303;28;20075;-81
2023/12/02 06:09:58;;;;;;;38.17;19.08;;;-0.40;99.90;;;;;;5057764;28;20048;-80
2023/12/02 06:12:23;;;;;;;34.40;17.67;;;-0.40;99.90;;;;;;5054626;28;20040;-80
2023/12/02 06:14:49;;;;;;;38.75;18.50;;;0.60;99.90;;;;;;5060099;28;20079;-82
2023/12/02 06:17:15;;;;;;;39.67;19.60;;;-0.40;99.90;;;;;;5060669;28;20777;-81
2023/12/02 06:19:41;;;;;;;34.28;17.00;;;-0.40;99.90;;;;;;5061630;28;20407;-79
2023/12/02 06:22:06;;;;;;;36.00;18.33;;;-0.40;99.90;;;;;;5062243;28;20050;-81
2023/12/02 06:24:32;;;;;;;34.53;17.90;;;-0.20;99.90;;;;;;5054428;28;20044;-81
2023/12/02 06:26:58;;;;;;;38.53;18.55;;;0.70;99.90;;;;;;5061045;28;20064;-82
2023/12/02 06:29:23;;;;;;;31.17;16.33;;;-0.40;99.90;;;;;;5054405;28;20389;-82
2023/12/02 06:31:50;;;;;;;40.95;18.63;;;0.90;99.90;;;;;;5054073;28;20040;-81
2023/12/02 06:34:16;;;;;;;39.10;18.75;;;-0.40;99.90;;;;;;5067402;28;20052;-82
2023/12/02 06:36:42;;;;;;;38.58;19.70;;;-0.40;99.90;;;;;;5065473;28;20076;-81
2023/12/02 06:39:08;;;;;;;38.17;17.50;;;-0.40;99.90;;;;;;5066771;28;21180;-81
2023/12/02 06:41:34;;;;;;;37.65;18.17;;;0.10;99.90;;;;;;5057906;28;20060;-79
2023/12/02 06:44:00;;;;;;;39.35;19.38;;;-0.30;99.90;;;;;;5055823;28;20124;-81
2023/12/02 06:46:26;;;;;;;37.70;18.10;;;-0.40;99.90;;;;;;5058284;28;20123;-82
2023/12/02 06:48:52;;;;;;;38.58;19.08;;;-0.40;99.90;;;;;;5064331;28;20388;-80
2023/12/02 06:51:17;;;;;;;34.28;17.75;;;-0.40;99.90;;;;;;5052874;28;20048;-81
2023/12/02 06:53:43;;;;;;;34.50;17.38;;;-0.40;99.90;;;;;;5054321;28;20079;-81
2023/12/02 06:56:22;;;;;;;38.38;18.95;;;-0.40;99.90;;;;;;5061985;28;20472;-81
2023/12/02 06:58:49;;;;;;;34.65;17.52;;;-0.40;99.90;;;;;;5072423;28;20056;-81
2023/12/02 07:01:24;;;;;;;39.92;17.83;;;-0.50;99.90;;;;;;5072207;28;20105;-81
2023/12/02 07:03:50;;;;;;;37.03;17.90;;;-0.40;99.90;;;;;;5064221;28;20119;-82
2023/12/02 07:06:16;;;;;;;37.28;18.45;;;-0.40;99.90;;;;;;5069631;28;20127;-81
2023/12/02 07:08:41;;;;;;;36.72;18.50;;;0.40;99.90;;;;;;5069330;28;20052;-81
2023/12/02 07:11:07;;;;;;;33.58;16.92;;;-0.40;99.90;;;;;;5059969;28;20087;-81
2023/12/02 07:13:33;;;;;;;35.97;18.15;;;0.60;99.90;;;;;;5060867;28;20136;-82
2023/12/02 07:15:58;;;;;;;39.33;19.40;;;-0.50;99.90;;;;;;5054543;28;20057;-84
2023/12/02 07:18:24;;;;;;;37.70;18.10;;;-0.10;99.90;;;;;;5066500;28;20080;-83
2023/12/02 07:20:50;;;;;;;36.25;18.10;;;-0.50;99.90;;;;;;5056649;28;20054;-81
2023/12/02 07:23:15;;;;;;;38.58;18.38;;;-0.50;99.90;;;;;;5063378;28;20075;-82
2023/12/02 07:25:41;;;;;;;41.97;18.20;;;-0.50;99.90;;;;;;5057174;28;20383;-80
2023/12/02 07:28:07;;;;;;;41.67;19.17;;;-0.50;99.90;;;;;;5059580;28;20060;-81
2023/12/02 07:30:33;;;;;;;37.92;18.30;;;0.00;99.90;;;;;;5066850;28;20041;-82
2023/12/02 07:32:58;;;;;;;41.15;19.15;;;-0.50;99.90;;;;;;5069882;28;20055;-81
2023/12/02 07:35:24;;;;;;;43.92;20.10;;;0.40;99.90;;;;;;5057192;28;20040;-80
2023/12/02 07:37:49;;;;;;;41.38;18.80;;;-0.40;99.90;;;;;;5058844;28;20085;-82
2023/12/02 07:40:15;;;;;;;39.80;20.55;;;-0.40;99.90;;;;;;5053008;28;20049;-82
2023/12/02 07:42:41;;;;;;;40.13;19.80;;;-0.40;99.90;;;;;;5053320;28;20440;-81
2023/12/02 07:45:07;;;;;;;41.05;17.15;;;-0.40;99.90;;;;;;5057845;28;20052;-82
2023/12/02 07:47:32;;;;;;;37.42;18.73;;;-0.40;99.90;;;;;;5048679;28;20720;-81
2023/12/02 07:49:58;;;;;;;38.15;18.20;;;-0.40;99.90;;;;;;5066487;28;20048;-84
2023/12/02 07:52:24;;;;;;;40.85;20.60;;;-0.40;99.90;;;;;;5064349;28;20124;-83
2023/12/02 07:54:49;;;;;;;40.63;19.15;;;-0.30;99.90;;;;;;5056246;28;20052;-84
2023/12/02 07:57:15;;;;;;;44.45;21.67;;;0.30;99.90;;;;;;5057886;28;20051;-81
2023/12/02 07:59:41;;;;;;;33.63;16.55;;;-0.30;99.90;;;;;;5053069;28;20103;-82
2023/12/02 08:02:06;;;;;;;54.00;28.40;;;-0.40;99.90;;;;;;5059196;28;20127;-82
2023/12/02 08:04:32;;;;;;;70.18;36.80;;;-0.30;99.90;;;;;;5059955;28;20041;-83
2023/12/02 08:06:57;;;;;;;48.53;25.52;;;-0.30;99.90;;;;;;5038071;28;20165;-82
2023/12/02 08:09:23;;;;;;;45.67;22.23;;;-0.40;99.90;;;;;;5069910;28;20110;-80
2023/12/02 08:11:49;;;;;;;49.03;25.92;;;-0.30;99.90;;;;;;5058616;28;20055;-85
2023/12/02 08:14:15;;;;;;;47.63;25.20;;;-0.30;99.90;;;;;;5056287;28;20503;-80
2023/12/02 08:16:41;;;;;;;44.50;21.95;;;-0.30;99.90;;;;;;5057509;28;20052;-82
2023/12/02 08:19:07;;;;;;;46.20;22.95;;;-0.30;99.90;;;;;;5063178;28;20179;-80
2023/12/02 08:21:32;;;;;;;40.22;20.50;;;-0.10;99.90;;;;;;5065439;28;20067;-81
2023/12/02 08:23:58;;;;;;;41.13;22.30;;;-0.30;99.90;;;;;;5055332;28;20041;-83
2023/12/02 08:26:24;;;;;;;40.08;20.90;;;0.00;99.90;;;;;;5061142;28;20044;-82
2023/12/02 08:28:50;;;;;;;47.58;23.33;;;-0.30;99.90;;;;;;5059990;28;20048;-83
2023/12/02 08:31:16;;;;;;;54.10;26.85;;;-0.30;99.90;;;;;;5056953;28;20052;-81
2023/12/02 08:33:41;;;;;;;46.17;22.00;;;-0.20;99.90;;;;;;5058684;28;20071;-78
2023/12/02 08:36:07;;;;;;;107.10;48.13;;;-0.10;99.90;;;;;;5059464;28;20048;-80
2023/12/02 08:38:33;;;;;;;222.93;82.97;;;-0.20;99.90;;;;;;5060310;28;20046;-80
2023/12/02 08:40:59;;;;;;;128.77;55.15;;;0.70;99.90;;;;;;5063042;28;20124;-81
2023/12/02 08:43:24;;;;;;;46.50;23.13;;;-0.30;99.90;;;;;;5061006;28;20053;-82
2023/12/02 08:45:50;;;;;;;46.50;22.23;;;-0.20;99.90;;;;;;5060477;28;20045;-83
2023/12/02 08:48:15;;;;;;;66.35;32.60;;;0.30;99.90;;;;;;5055917;28;20044;-81
2023/12/02 08:50:41;;;;;;;45.92;21.35;;;-0.20;99.90;;;;;;5058788;28;20051;-81
2023/12/02 08:53:07;;;;;;;44.28;23.02;;;-0.10;99.90;;;;;;5056438;28;20049;-80
2023/12/02 08:55:33;;;;;;;48.88;23.17;;;-0.10;99.90;;;;;;5063881;28;21031;-82
2023/12/02 08:57:58;;;;;;;37.00;18.85;;;0.10;99.90;;;;;;5063735;28;20047;-82
2023/12/02 09:00:24;;;;;;;49.15;25.70;;;-0.10;99.90;;;;;;5060676;28;20041;-87
2023/12/02 09:02:50;;;;;;;42.42;20.65;;;-0.10;99.90;;;;;;5060091;28;20053;-87
2023/12/02 09:05:16;;;;;;;44.08;21.20;;;0.30;99.90;;;;;;5066869;28;20048;-85
2023/12/02 09:07:42;;;;;;;49.78;24.05;;;0.20;99.90;;;;;;5065520;28;20106;-85
2023/12/02 09:10:09;;;;;;;47.85;21.98;;;0.10;99.90;;;;;;5066465;28;20045;-85
2023/12/02 09:12:34;;;;;;;43.58;22.30;;;0.00;99.90;;;;;;5067035;28;20053;-84
2023/12/02 09:15:23;;;;;;;44.20;20.90;;;0.10;99.90;;;;;;5072112;28;20032;-80
2023/12/02 09:18:11;;;;;;;40.63;20.05;;;0.40;99.90;;;;;;5064256;28;20055;-81
2023/12/02 09:20:47;;;;;;;47.22;22.27;;;0.10;99.90;;;;;;5061151;28;20135;-81
2023/12/02 09:23:14;;;;;;;46.88;23.42;;;0.10;99.90;;;;;;5055615;28;20056;-81
2023/12/02 09:25:41;;;;;;;42.75;22.25;;;0.20;99.90;;;;;;5056906;28;20053;-80
2023/12/02 09:28:06;;;;;;;46.22;22.73;;;0.10;99.90;;;;;;5040214;28;20048;-80
2023/12/02 09:30:33;;;;;;;53.58;27.45;;;0.10;99.90;;;;;;5055613;28;20044;-82
2023/12/02 09:33:00;;;;;;;49.55;25.23;;;0.10;99.90;;;;;;5057750;28;20049;-80
2023/12/02 09:35:26;;;;;;;45.35;23.85;;;0.10;99.90;;;;;;5052566;28;20079;-82
2023/12/02 09:37:52;;;;;;;47.22;25.40;;;0.70;99.90;;;;;;5056975;28;20045;-80
2023/12/02 09:40:20;;;;;;;51.08;28.38;;;0.10;99.90;;;;;;5058579;28;20056;-79
2023/12/02 09:42:52;;;;;;;47.60;25.20;;;0.90;99.90;;;;;;5058992;28;20044;-81
2023/12/02 09:45:21;;;;;;;47.22;25.05;;;0.20;99.90;;;;;;5055252;28;20044;-82
2023/12/02 09:48:05;;;;;;;42.83;21.13;;;0.90;99.90;;;;;;5055433;28;20503;-77
2023/12/02 09:50:37;;;;;;;48.17;25.23;;;0.30;99.90;;;;;;5061593;28;20048;-79
2023/12/02 09:53:30;;;;;;;45.78;21.30;;;0.40;99.90;;;;;;5056449;28;20052;-77
2023/12/02 09:56:00;;;;;;;46.85;23.90;;;0.40;99.90;;;;;;5057500;28;20044;-76
2023/12/02 09:58:41;;;;;;;50.08;27.15;;;0.50;99.90;;;;;;5055559;28;20048;-78
2023/12/02 10:01:27;;;;;;;45.70;24.10;;;0.50;99.90;;;;;;5061308;28;20048;-78
2023/12/02 10:04:24;;;;;;;41.70;20.40;;;0.60;99.90;;;;;;5061865;28;20094;-79
2023/12/02 10:07:03;;;;;;;42.03;20.77;;;0.60;99.90;;;;;;5058418;28;20092;-80
2023/12/02 10:09:29;;;;;;;47.63;24.08;;;0.70;99.90;;;;;;5055798;28;20052;-79
2023/12/02 10:12:32;;;;;;;47.65;21.27;;;0.70;99.90;;;;;;5059490;28;20041;-80
2023/12/02 10:15:05;;;;;;;39.90;18.40;;;0.70;99.90;;;;;;5061229;28;20052;-79
2023/12/02 10:18:00;;;;;;;37.92;20.23;;;0.70;99.90;;;;;;5056476;28;20091;-80
2023/12/02 10:20:28;;;;;;;42.78;18.30;;;0.80;99.90;;;;;;5061545;28;20123;-79
2023/12/02 10:23:16;;;;;;;46.63;22.88;;;0.80;99.90;;;;;;5063662;28;20049;-79
2023/12/02 10:25:59;;;;;;;44.72;24.05;;;0.80;99.90;;;;;;5058988;28;20530;-79
2023/12/02 10:28:52;;;;;;;43.40;23.95;;;0.80;99.90;;;;;;5061910;28;20087;-80
2023/12/02 10:31:29;;;;;;;43.35;21.27;;;1.00;99.90;;;;;;5058780;28;20045;-79
2023/12/02 10:34:12;;;;;;;52.60;30.08;;;0.90;99.90;;;;;;5055556;28;20045;-79
2023/12/02 10:36:38;;;;;;;49.17;27.27;;;0.90;99.90;;;;;;5060829;28;20040;-79
2023/12/02 10:39:15;;;;;;;41.67;19.95;;;1.00;99.90;;;;;;5057104;28;20055;-79
2023/12/02 10:41:51;;;;;;;38.78;20.10;;;1.00;99.90;;;;;;5063495;28;20124;-80
2023/12/02 10:44:21;;;;;;;37.72;18.30;;;1.00;99.90;;;;;;5060338;28;20075;-80
2023/12/02 10:46:49;;;;;;;40.10;21.35;;;1.00;99.90;;;;;;5065515;28;20072;-77
2023/12/02 10:49:16;;;;;;;43.28;21.08;;;1.00;99.90;;;;;;5064120;28;20075;-79
2023/12/02 10:51:43;;;;;;;37.10;19.02;;;1.50;99.90;;;;;;5059926;28;20582;-79
2023/12/02 10:54:12;;;;;;;38.00;19.23;;;1.10;99.90;;;;;;5060882;28;20056;-79
2023/12/02 10:56:39;;;;;;;41.17;19.70;;;1.10;99.90;;;;;;5060398;28;20565;-79
2023/12/02 10:59:05;;;;;;;52.55;27.50;;;1.10;99.90;;;;;;5059375;28;20047;-80
2023/12/02 11:01:38;;;;;;;42.03;20.88;;;1.20;99.90;;;;;;5059821;28;20443;-79
2023/12/02 11:04:31;;;;;;;42.33;22.90;;;1.30;99.90;;;;;;5058422;28;20084;-79
2023/12/02 11:07:03;;;;;;;39.97;19.60;;;1.20;99.90;;;;;;5059579;28;20059;-81
2023/12/02 11:09:29;;;;;;;40.15;20.15;;;1.30;99.90;;;;;;5059615;28;20083;-82
2023/12/02 11:12:03;;;;;;;38.08;20.35;;;1.30;99.90;;;;;;5063799;28;20072;-81
2023/12/02 11:14:41;;;;;;;36.40;19.27;;;1.40;99.90;;;;;;5055705;28;20047;-79
2023/12/02 11:17:19;;;;;;;38.20;20.30;;;1.40;99.90;;;;;;5055644;28;20049;-80
2023/12/02 11:19:51;;;;;;;55.72;31.98;;;1.50;99.90;;;;;;5055233;28;20041;-80
2023/12/02 11:22:28;;;;;;;47.95;26.92;;;1.50;99.90;;;;;;5057808;28;20094;-81
2023/12/02 11:25:05;;;;;;;44.65;23.27;;;1.60;99.90;;;;;;5045987;28;20143;-81
2023/12/02 11:27:50;;;;;;;34.65;17.67;;;2.40;99.90;;;;;;5070854;28;20049;-79
2023/12/02 11:30:47;;;;;;;34.83;18.05;;;1.60;99.90;;;;;;5062026;28;20048;-81
2023/12/02 11:33:21;;;;;;;34.65;17.70;;;1.60;99.90;;;;;;5051914;28;20052;-80
2023/12/02 11:35:59;;;;;;;37.55;18.45;;;1.70;99.90;;;;;;5065071;28;20083;-79
2023/12/02 11:38:29;;;;;;;31.90;15.43;;;1.70;99.90;;;;;;5067123;28;20403;-80
2023/12/02 11:41:23;;;;;;;32.67;15.98;;;1.70;99.90;;;;;;5059528;28;20048;-81
2023/12/02 11:44:21;;;;;;;29.85;16.92;;;1.70;99.90;;;;;;5060578;28;20115;-82
2023/12/02 11:47:08;;;;;;;36.40;20.63;;;1.80;99.90;;;;;;5059676;28;20044;-81
2023/12/02 11:49:45;;;;;;;38.65;20.95;;;1.80;99.90;;;;;;5050406;28;20049;-81
2023/12/02 11:52:18;;;;;;;33.53;17.08;;;1.90;99.90;;;;;;5041489;28;20057;-78
2023/12/02 11:55:20;;;;;;;30.02;17.00;;;1.90;99.90;;;;;;5051344;28;20056;-78
2023/12/02 11:57:46;;;;;;;32.28;17.80;;;2.00;99.90;;;;;;5063565;28;20060;-76
2023/12/02 12:00:19;;;;;;;26.65;14.48;;;2.00;99.90;;;;;;5060790;28;20057;-82
2023/12/02 12:03:11;;;;;;;31.80;17.25;;;2.10;99.90;;;;;;5071401;28;20476;-82
2023/12/02 12:05:41;;;;;;;31.15;16.95;;;2.10;99.90;;;;;;5052959;28;20113;-82
2023/12/02 12:08:11;;;;;;;27.85;15.10;;;2.10;99.90;;;;;;5053249;28;20060;-77
2023/12/02 12:10:38;;;;;;;26.45;14.05;;;2.10;99.90;;;;;;5064086;28;20041;-78
2023/12/02 12:13:08;;;;;;;26.63;13.68;;;2.10;99.90;;;;;;5070465;28;20048;-78
2023/12/02 12:15:36;;;;;;;124.53;49.35;;;2.10;99.90;;;;;;5059672;28;20044;-81
2023/12/02 12:18:02;;;;;;;52.80;22.98;;;2.10;99.90;;;;;;5066240;28;20067;-80
2023/12/02 12:20:29;;;;;;;42.63;18.83;;;2.10;99.90;;;;;;5065167;28;20182;-79
2023/12/02 12:22:55;;;;;;;92.45;32.45;;;2.10;99.90;;;;;;5068662;28;20072;-79
2023/12/02 12:25:25;;;;;;;93.38;35.30;;;2.10;99.90;;;;;;5068277;28;20110;-78
2023/12/02 12:27:50;;;;;;;45.13;19.17;;;2.10;99.90;;;;;;5071337;28;20056;-80
2023/12/02 12:30:16;;;;;;;39.05;17.20;;;2.20;99.90;;;;;;5049894;28;20032;-79
2023/12/02 12:32:42;;;;;;;44.67;16.88;;;2.20;99.90;;;;;;5072004;28;20047;-79
2023/12/02 12:35:14;;;;;;;41.10;19.75;;;2.20;99.90;;;;;;5071838;28;20083;-77
2023/12/02 12:37:41;;;;;;;37.75;16.20;;;2.20;99.90;;;;;;5060459;28;20037;-78
2023/12/02 12:40:13;;;;;;;29.60;14.30;;;2.20;99.90;;;;;;5067675;28;20534;-79